createdAt,value
2023-08-06T00:00:07.989Z,77.05
2023-08-06T00:02:36.357Z,76.64
2023-08-06T00:05:04.572Z,77.28
2023-08-06T00:07:31.527Z,76.96
2023-08-06T00:10:00.696Z,77.27
2023-08-06T00:12:27.688Z,77.45
2023-08-06T00:14:55.817Z,77.45
2023-08-06T00:17:23.205Z,77.26
2023-08-06T00:19:52.272Z,77.57
2023-08-06T00:22:19.212Z,77.45
2023-08-06T00:24:47.311Z,77.91
2023-08-06T00:27:14.637Z,77.80
2023-08-06T00:29:41.632Z,77.69
2023-08-06T00:32:08.574Z,77.69
2023-08-06T00:34:35.505Z,77.61
2023-08-06T00:37:03.254Z,78.08
2023-08-06T00:39:30.137Z,77.99
2023-08-06T00:41:57.065Z,77.96
2023-08-06T00:44:24.523Z,78.24
2023-08-06T00:46:51.917Z,77.80
2023-08-06T00:49:20.166Z,78.14
2023-08-06T00:51:48.111Z,78.00
2023-08-06T00:54:15.454Z,78.27
2023-08-06T00:56:43.502Z,78.50
2023-08-06T00:59:11.504Z,78.48
2023-08-06T01:01:38.561Z,78.17
2023-08-06T01:04:05.714Z,78.32
2023-08-06T01:06:53.671Z,78.32
2023-08-06T01:09:46.056Z,78.55
2023-08-06T01:12:24.154Z,78.95
2023-08-06T01:15:00.786Z,78.92
2023-08-06T01:17:28.173Z,79.24
2023-08-06T01:19:56.358Z,79.13
2023-08-06T01:22:23.493Z,79.24
2023-08-06T01:24:52.020Z,79.20
2023-08-06T01:27:25.348Z,79.43
2023-08-06T01:30:05.507Z,79.38
2023-08-06T01:32:36.379Z,79.64
2023-08-06T01:35:05.128Z,79.75
2023-08-06T01:37:32.884Z,79.43
2023-08-06T01:39:59.875Z,79.44
2023-08-06T01:42:28.487Z,79.70
2023-08-06T01:44:56.254Z,79.94
2023-08-06T01:47:23.384Z,80.01
2023-08-06T01:49:50.360Z,79.68
2023-08-06T01:52:18.956Z,80.04
2023-08-06T01:54:45.890Z,79.96
2023-08-06T01:57:13.095Z,80.10
2023-08-06T01:59:40.236Z,79.89
2023-08-06T02:02:07.437Z,80.28
2023-08-06T02:04:36.138Z,80.30
2023-08-06T02:07:03.169Z,79.97
2023-08-06T02:09:30.146Z,80.12
2023-08-06T02:11:57.653Z,80.23
2023-08-06T02:14:24.826Z,80.06
2023-08-06T02:16:54.281Z,80.07
2023-08-06T02:19:21.458Z,80.42
2023-08-06T02:21:49.435Z,80.12
2023-08-06T02:24:16.737Z,80.56
2023-08-06T02:26:43.754Z,80.19
2023-08-06T02:29:10.723Z,80.68
2023-08-06T02:31:37.732Z,80.57
2023-08-06T02:34:06.352Z,80.33
2023-08-06T02:36:33.571Z,80.51
2023-08-06T02:39:01.184Z,80.52
2023-08-06T02:41:30.623Z,80.72
2023-08-06T02:43:59.732Z,80.53
2023-08-06T02:46:26.864Z,80.59
2023-08-06T02:48:53.740Z,80.57
2023-08-06T02:51:21.154Z,80.88
2023-08-06T02:53:49.443Z,80.83
2023-08-06T02:56:18.683Z,80.95
2023-08-06T02:58:58.515Z,80.90
2023-08-06T03:01:37.557Z,81.20
2023-08-06T03:04:15.756Z,81.36
2023-08-06T03:06:45.414Z,81.28
2023-08-06T03:09:12.845Z,80.99
2023-08-06T03:11:40.387Z,81.00
2023-08-06T03:14:11.844Z,81.09
2023-08-06T03:16:39.667Z,80.94
2023-08-06T03:19:08.616Z,81.33
2023-08-06T03:21:36.052Z,81.30
2023-08-06T03:24:04.494Z,81.37
2023-08-06T03:26:36.068Z,81.13
2023-08-06T03:29:03.638Z,81.26
2023-08-06T03:31:35.532Z,81.07
2023-08-06T03:34:05.598Z,81.48
2023-08-06T03:36:33.710Z,81.42
2023-08-06T03:39:03.133Z,81.30
2023-08-06T03:41:31.802Z,81.28
2023-08-06T03:43:59.207Z,81.29
2023-08-06T03:46:28.412Z,81.39
2023-08-06T03:48:55.338Z,81.34
2023-08-06T03:51:22.428Z,81.48
2023-08-06T03:53:50.220Z,81.06
2023-08-06T03:56:17.966Z,81.00
2023-08-06T03:58:44.976Z,81.14
2023-08-06T04:01:11.985Z,81.37
2023-08-06T04:03:43.755Z,81.19
2023-08-06T04:06:10.856Z,81.18
2023-08-06T04:08:37.798Z,81.00
2023-08-06T04:11:05.117Z,81.06
2023-08-06T04:13:32.071Z,81.12
2023-08-06T04:16:04.065Z,80.93
2023-08-06T04:18:32.444Z,80.91
2023-08-06T04:20:59.559Z,81.44
2023-08-06T04:23:26.477Z,81.17
2023-08-06T04:25:59.875Z,81.32
2023-08-06T04:28:31.602Z,80.96
2023-08-06T04:31:00.778Z,81.23
2023-08-06T04:33:28.460Z,81.15
2023-08-06T04:35:58.270Z,81.12
2023-08-06T04:38:27.584Z,81.39
2023-08-06T04:40:55.597Z,81.29
2023-08-06T04:43:23.756Z,81.14
2023-08-06T04:45:53.171Z,81.48
2023-08-06T04:48:20.269Z,81.42
2023-08-06T04:50:51.390Z,81.20
2023-08-06T04:53:18.608Z,81.15
2023-08-06T04:55:45.790Z,81.39
2023-08-06T04:58:14.314Z,81.39
2023-08-06T05:00:41.369Z,81.34
2023-08-06T05:03:08.745Z,81.21
2023-08-06T05:05:35.846Z,80.76
2023-08-06T05:08:02.995Z,80.76
2023-08-06T05:10:30.037Z,80.81
2023-08-06T05:12:57.110Z,80.81
2023-08-06T05:15:24.103Z,80.83
2023-08-06T05:17:51.300Z,80.84
2023-08-06T05:20:20.253Z,80.76
2023-08-06T05:22:47.137Z,80.93
2023-08-06T05:25:14.932Z,80.60
2023-08-06T05:27:42.145Z,80.78
2023-08-06T05:30:09.968Z,81.15
2023-08-06T05:32:37.042Z,80.96
2023-08-06T05:35:04.621Z,81.04
2023-08-06T05:37:31.582Z,81.17
2023-08-06T05:39:58.627Z,81.16
2023-08-06T05:42:25.830Z,81.02
2023-08-06T05:44:52.722Z,80.88
2023-08-06T05:47:20.977Z,80.85
2023-08-06T05:49:48.172Z,80.72
2023-08-06T05:52:15.148Z,80.31
2023-08-06T05:54:42.103Z,80.30
2023-08-06T05:57:09.075Z,80.23
2023-08-06T05:59:36.280Z,80.34
2023-08-06T06:02:03.324Z,80.22
2023-08-06T06:04:30.748Z,80.09
2023-08-06T06:06:57.666Z,79.94
2023-08-06T06:09:24.770Z,80.06
2023-08-06T06:11:52.281Z,79.61
2023-08-06T06:14:20.137Z,79.64
2023-08-06T06:16:47.447Z,79.62
2023-08-06T06:19:14.754Z,79.65
2023-08-06T06:21:41.968Z,79.51
2023-08-06T06:24:09.537Z,79.61
2023-08-06T06:26:36.593Z,79.43
2023-08-06T06:29:05.113Z,79.72
2023-08-06T06:31:33.079Z,79.76
2023-08-06T06:34:00.108Z,79.75
2023-08-06T06:36:27.082Z,79.95
2023-08-06T06:38:54.229Z,79.79
2023-08-06T06:41:21.255Z,80.09
2023-08-06T06:43:48.245Z,80.07
2023-08-06T06:46:15.179Z,79.71
2023-08-06T06:48:43.762Z,79.74
2023-08-06T06:51:10.758Z,79.85
2023-08-06T06:53:38.293Z,79.99
2023-08-06T06:56:05.945Z,80.37
2023-08-06T06:58:33.968Z,80.12
2023-08-06T07:01:01.058Z,79.96
2023-08-06T07:03:28.231Z,80.25
2023-08-06T07:06:00.140Z,80.23
2023-08-06T07:08:27.165Z,80.06
2023-08-06T07:11:02.043Z,80.41
2023-08-06T07:13:29.096Z,80.44
2023-08-06T07:15:56.727Z,80.35
2023-08-06T07:18:24.073Z,80.40
2023-08-06T07:20:52.540Z,80.47
2023-08-06T07:23:21.956Z,79.93
2023-08-06T07:25:49.316Z,80.33
2023-08-06T07:28:16.840Z,80.40
2023-08-06T07:30:44.998Z,80.29
2023-08-06T07:33:11.981Z,80.30
2023-08-06T07:35:40.223Z,80.19
2023-08-06T07:38:08.757Z,80.17
2023-08-06T07:40:38.408Z,80.35
2023-08-06T07:43:05.441Z,80.05
2023-08-06T07:45:38.947Z,79.91
2023-08-06T07:48:06.210Z,80.06
2023-08-06T07:50:33.496Z,79.90
2023-08-06T07:53:00.607Z,80.06
2023-08-06T07:55:27.626Z,80.34
2023-08-06T07:57:55.852Z,80.13
2023-08-06T08:00:23.614Z,80.10
2023-08-06T08:02:52.485Z,80.12
2023-08-06T08:05:19.751Z,80.05
2023-08-06T08:07:47.139Z,79.80
2023-08-06T08:10:21.116Z,79.95
2023-08-06T08:12:49.025Z,80.46
2023-08-06T08:15:16.165Z,80.47
2023-08-06T08:17:43.723Z,80.98
2023-08-06T08:20:14.658Z,80.77
2023-08-06T08:22:44.683Z,81.15
2023-08-06T08:25:12.171Z,80.95
2023-08-06T08:27:39.459Z,81.17
2023-08-06T08:30:07.288Z,80.96
2023-08-06T08:32:34.336Z,81.25
2023-08-06T08:35:02.713Z,81.08
2023-08-06T08:37:31.414Z,81.42
2023-08-06T08:39:59.385Z,81.62
2023-08-06T08:42:29.678Z,81.50
2023-08-06T08:45:00.162Z,81.31
2023-08-06T08:47:29.487Z,81.75
2023-08-06T08:50:03.332Z,81.36
2023-08-06T08:52:34.330Z,81.58
2023-08-06T08:55:03.251Z,81.25
2023-08-06T08:57:30.550Z,81.80
2023-08-06T08:59:57.766Z,81.73
2023-08-06T09:02:26.668Z,81.34
2023-08-06T09:04:54.347Z,81.44
2023-08-06T09:07:26.191Z,81.52
2023-08-06T09:09:53.855Z,81.36
2023-08-06T09:12:23.706Z,81.48
2023-08-06T09:14:51.004Z,81.57
2023-08-06T09:17:21.190Z,81.08
2023-08-06T09:19:51.352Z,81.20
2023-08-06T09:22:18.264Z,81.45
2023-08-06T09:24:47.560Z,81.57
2023-08-06T09:27:15.752Z,81.52
2023-08-06T09:29:46.064Z,81.34
2023-08-06T09:32:14.025Z,81.38
2023-08-06T09:34:45.877Z,81.65
2023-08-06T09:37:16.919Z,81.63
2023-08-06T09:39:46.002Z,81.34
2023-08-06T09:42:19.322Z,81.46
2023-08-06T09:44:46.283Z,80.85
2023-08-06T09:47:18.768Z,81.15
2023-08-06T09:49:46.863Z,81.07
2023-08-06T09:52:15.774Z,81.16
2023-08-06T09:54:44.695Z,80.83
2023-08-06T09:57:17.477Z,80.74
2023-08-06T09:59:53.910Z,80.61
2023-08-06T10:02:33.155Z,80.88
2023-08-06T10:05:11.195Z,80.90
2023-08-06T10:07:43.999Z,80.89
2023-08-06T10:10:14.152Z,80.85
2023-08-06T10:12:44.737Z,80.60
2023-08-06T10:15:15.592Z,80.97
2023-08-06T10:17:51.586Z,81.00
2023-08-06T10:20:22.526Z,80.90
2023-08-06T10:23:18.844Z,81.04
2023-08-06T10:25:57.039Z,80.88
2023-08-06T10:28:39.870Z,80.61
2023-08-06T10:31:07.272Z,80.77
2023-08-06T10:33:48.049Z,80.50
2023-08-06T10:36:16.968Z,80.75
2023-08-06T10:38:56.363Z,80.31
2023-08-06T10:41:30.032Z,80.23
2023-08-06T10:44:13.705Z,79.91
2023-08-06T10:46:52.669Z,80.32
2023-08-06T10:49:20.741Z,80.18
2023-08-06T10:51:49.381Z,80.32
2023-08-06T10:54:16.498Z,80.54
2023-08-06T10:56:43.704Z,80.19
2023-08-06T10:59:14.711Z,80.31
2023-08-06T11:01:44.801Z,80.61
2023-08-06T11:04:17.400Z,80.55
2023-08-06T11:06:45.799Z,80.89
2023-08-06T11:09:12.901Z,80.91
2023-08-06T11:11:40.508Z,80.76
2023-08-06T11:14:16.593Z,81.15
2023-08-06T11:16:46.752Z,80.91
2023-08-06T11:19:17.683Z,81.28
2023-08-06T11:21:47.423Z,81.24
2023-08-06T11:24:15.068Z,81.07
2023-08-06T11:26:42.407Z,81.08
2023-08-06T11:29:09.922Z,81.62
2023-08-06T11:31:37.753Z,81.81
2023-08-06T11:34:04.703Z,81.53
2023-08-06T11:36:32.374Z,81.77
2023-08-06T11:39:00.641Z,81.37
2023-08-06T11:41:30.160Z,81.55
2023-08-06T11:43:57.189Z,81.70
2023-08-06T11:46:24.997Z,81.87
2023-08-06T11:48:57.432Z,81.65
2023-08-06T11:51:25.693Z,81.84
2023-08-06T11:53:59.572Z,81.68
2023-08-06T11:56:27.808Z,81.81
2023-08-06T11:58:55.976Z,82.28
2023-08-06T12:01:23.072Z,82.04
2023-08-06T12:03:50.110Z,82.42
2023-08-06T12:06:17.422Z,82.31
2023-08-06T12:08:44.419Z,82.32
2023-08-06T12:11:11.389Z,82.18
2023-08-06T12:13:38.565Z,81.96
2023-08-06T12:16:06.053Z,82.38
2023-08-06T12:18:33.251Z,81.96
2023-08-06T12:21:00.269Z,82.16
2023-08-06T12:23:28.403Z,82.10
2023-08-06T12:25:55.430Z,82.29
2023-08-06T12:28:24.195Z,82.46
2023-08-06T12:30:52.175Z,82.22
2023-08-06T12:33:20.219Z,82.50
2023-08-06T12:35:47.523Z,82.57
2023-08-06T12:38:16.359Z,82.51
2023-08-06T12:40:44.107Z,82.20
2023-08-06T12:43:11.195Z,82.14
2023-08-06T12:45:38.328Z,82.31
2023-08-06T12:48:05.591Z,82.07
2023-08-06T12:50:34.406Z,82.06
2023-08-06T12:53:02.282Z,82.53
2023-08-06T12:55:31.898Z,82.49
2023-08-06T12:57:59.845Z,82.13
2023-08-06T13:00:29.803Z,82.16
2023-08-06T13:02:57.105Z,82.34
2023-08-06T13:05:24.587Z,82.59
2023-08-06T13:07:51.541Z,82.62
2023-08-06T13:10:19.712Z,82.25
2023-08-06T13:12:46.998Z,82.63
2023-08-06T13:15:15.947Z,82.61
2023-08-06T13:17:43.754Z,82.68
2023-08-06T13:20:11.645Z,82.91
2023-08-06T13:22:39.691Z,83.03
2023-08-06T13:25:07.260Z,82.65
2023-08-06T13:27:34.212Z,82.51
2023-08-06T13:30:01.125Z,82.63
2023-08-06T13:32:28.092Z,82.78
2023-08-06T13:34:55.169Z,82.67
2023-08-06T13:37:22.775Z,82.86
2023-08-06T13:39:50.491Z,82.67
2023-08-06T13:42:17.674Z,82.11
2023-08-06T13:44:44.593Z,82.33
2023-08-06T13:47:11.518Z,82.02
2023-08-06T13:49:38.517Z,81.99
2023-08-06T13:52:20.981Z,82.06
2023-08-06T13:54:49.588Z,81.93
2023-08-06T13:57:18.836Z,81.97
2023-08-06T13:59:46.477Z,82.42
2023-08-06T14:02:13.636Z,82.19
2023-08-06T14:04:41.810Z,82.49
2023-08-06T14:07:08.727Z,82.67
2023-08-06T14:09:36.037Z,82.55
2023-08-06T14:12:03.058Z,83.08
2023-08-06T14:14:31.585Z,83.07
2023-08-06T14:16:59.329Z,83.47
2023-08-06T14:19:26.658Z,83.06
2023-08-06T14:21:56.667Z,83.29
2023-08-06T14:24:23.608Z,83.34
2023-08-06T14:26:50.526Z,83.45
2023-08-06T14:29:17.509Z,83.48
2023-08-06T14:31:45.227Z,83.52
2023-08-06T14:34:12.502Z,83.34
2023-08-06T14:36:39.469Z,83.39
2023-08-06T14:39:06.333Z,83.40
2023-08-06T14:41:33.174Z,83.79
2023-08-06T14:44:00.157Z,83.63
2023-08-06T14:46:28.179Z,83.17
2023-08-06T14:48:55.118Z,83.16
2023-08-06T14:51:22.748Z,83.15
2023-08-06T14:53:49.884Z,83.05
2023-08-06T14:56:17.090Z,82.87
2023-08-06T14:58:44.119Z,82.87
2023-08-06T15:01:11.152Z,82.85
2023-08-06T15:03:38.363Z,83.24
2023-08-06T15:06:05.235Z,82.95
2023-08-06T15:08:32.155Z,83.28
2023-08-06T15:10:59.633Z,82.88
2023-08-06T15:13:26.732Z,82.99
2023-08-06T15:15:53.686Z,83.49
2023-08-06T15:18:20.989Z,83.42
2023-08-06T15:20:48.036Z,83.21
2023-08-06T15:23:15.738Z,83.33
2023-08-06T15:25:44.392Z,83.33
2023-08-06T15:28:11.377Z,83.31
2023-08-06T15:30:38.469Z,83.07
2023-08-06T15:33:06.977Z,83.25
2023-08-06T15:35:33.911Z,83.30
2023-08-06T15:38:01.179Z,83.25
2023-08-06T15:40:28.806Z,82.90
2023-08-06T15:42:55.877Z,83.12
2023-08-06T15:45:22.899Z,82.77
2023-08-06T15:47:51.186Z,83.08
2023-08-06T15:50:18.213Z,83.04
2023-08-06T15:52:45.173Z,82.85
2023-08-06T15:55:12.438Z,83.12
2023-08-06T15:57:39.386Z,82.87
2023-08-06T16:00:08.204Z,83.22
2023-08-06T16:02:43.345Z,83.18
2023-08-06T16:05:10.771Z,83.13
2023-08-06T16:07:38.018Z,83.18
2023-08-06T16:10:05.510Z,83.13
2023-08-06T16:12:32.478Z,83.26
2023-08-06T16:14:59.986Z,82.71
2023-08-06T16:17:26.931Z,81.43
2023-08-06T16:19:54.542Z,81.09
2023-08-06T16:22:21.959Z,80.28
2023-08-06T16:24:50.440Z,80.51
2023-08-06T16:27:17.870Z,79.97
2023-08-06T16:29:46.578Z,79.87
2023-08-06T16:32:13.593Z,79.92
2023-08-06T16:34:40.639Z,80.10
2023-08-06T16:37:07.997Z,80.27
2023-08-06T16:39:35.201Z,80.03
2023-08-06T16:42:02.476Z,80.56
2023-08-06T16:44:32.645Z,80.48
2023-08-06T16:47:00.887Z,80.53
2023-08-06T16:49:28.136Z,80.87
2023-08-06T16:51:55.408Z,80.58
2023-08-06T16:54:22.413Z,80.57
2023-08-06T16:56:50.586Z,80.73
2023-08-06T16:59:17.918Z,80.95
2023-08-06T17:01:44.780Z,80.94
2023-08-06T17:04:12.949Z,80.74
2023-08-06T17:06:40.053Z,80.94
2023-08-06T17:09:07.519Z,80.91
2023-08-06T17:11:34.936Z,81.20
2023-08-06T17:14:02.186Z,80.90
2023-08-06T17:16:29.272Z,80.65
2023-08-06T17:18:57.901Z,80.69
2023-08-06T17:21:25.804Z,80.30
2023-08-06T17:23:53.196Z,80.60
2023-08-06T17:26:21.612Z,80.43
2023-08-06T17:28:49.380Z,80.55
2023-08-06T17:31:16.471Z,80.39
2023-08-06T17:33:43.860Z,80.41
2023-08-06T17:36:11.273Z,80.66
2023-08-06T17:38:38.631Z,80.60
2023-08-06T17:41:06.432Z,80.47
2023-08-06T17:43:36.095Z,80.32
2023-08-06T17:46:04.472Z,80.72
2023-08-06T17:48:32.077Z,80.86
2023-08-06T17:50:59.640Z,80.92
2023-08-06T17:53:29.455Z,81.02
2023-08-06T17:55:56.746Z,80.79
2023-08-06T17:58:26.596Z,80.98
2023-08-06T18:00:53.592Z,81.48
2023-08-06T18:03:21.502Z,81.24
2023-08-06T18:05:55.211Z,81.41
2023-08-06T18:08:22.475Z,81.52
2023-08-06T18:10:49.417Z,81.88
2023-08-06T18:13:16.704Z,81.98
2023-08-06T18:15:43.670Z,82.13
2023-08-06T18:18:13.776Z,82.37
2023-08-06T18:20:40.730Z,82.53
2023-08-06T18:23:07.697Z,82.58
2023-08-06T18:25:36.010Z,82.85
2023-08-06T18:28:03.061Z,82.81
2023-08-06T18:30:30.011Z,82.96
2023-08-06T18:32:57.145Z,83.05
2023-08-06T18:35:24.537Z,82.92
2023-08-06T18:37:52.584Z,83.10
2023-08-06T18:40:19.664Z,83.23
2023-08-06T18:42:47.074Z,83.13
2023-08-06T18:45:14.070Z,83.12
2023-08-06T18:47:41.374Z,82.92
2023-08-06T18:50:08.827Z,82.99
2023-08-06T18:52:36.036Z,83.29
2023-08-06T18:55:04.753Z,83.10
2023-08-06T18:57:32.794Z,82.90
2023-08-06T19:00:00.402Z,82.84
2023-08-06T19:02:28.590Z,83.14
2023-08-06T19:04:58.870Z,83.11
2023-08-06T19:07:26.562Z,82.71
2023-08-06T19:09:53.497Z,82.65
2023-08-06T19:12:22.315Z,83.04
2023-08-06T19:14:49.513Z,82.91
2023-08-06T19:17:16.388Z,82.75
2023-08-06T19:19:45.114Z,83.08
2023-08-06T19:22:13.584Z,82.88
2023-08-06T19:24:41.614Z,82.74
2023-08-06T19:27:09.573Z,82.68
2023-08-06T19:29:36.798Z,82.68
2023-08-06T19:32:06.804Z,82.68
2023-08-06T19:34:35.239Z,82.78
2023-08-06T19:37:02.363Z,83.17
2023-08-06T19:39:29.357Z,83.14
2023-08-06T19:41:57.078Z,82.72
2023-08-06T19:44:24.590Z,83.07
2023-08-06T19:46:52.181Z,82.65
2023-08-06T19:49:19.184Z,82.66
2023-08-06T19:51:50.344Z,82.81
2023-08-06T19:54:19.341Z,82.78
2023-08-06T19:56:46.285Z,82.82
2023-08-06T19:59:13.197Z,83.11
2023-08-06T20:01:40.246Z,82.78
2023-08-06T20:04:07.239Z,83.29
2023-08-06T20:06:34.273Z,83.25
2023-08-06T20:09:01.234Z,82.98
2023-08-06T20:11:28.324Z,83.34
2023-08-06T20:13:56.126Z,83.42
2023-08-06T20:16:23.130Z,83.08
2023-08-06T20:18:51.305Z,83.25
2023-08-06T20:21:18.279Z,82.85
2023-08-06T20:23:45.834Z,83.01
2023-08-06T20:26:15.398Z,82.56
2023-08-06T20:28:42.882Z,82.38
2023-08-06T20:31:10.227Z,82.80
2023-08-06T20:33:37.688Z,82.69
2023-08-06T20:36:04.886Z,82.60
2023-08-06T20:38:32.090Z,82.27
2023-08-06T20:40:59.157Z,82.37
2023-08-06T20:43:26.641Z,81.97
2023-08-06T20:45:55.376Z,82.24
2023-08-06T20:48:23.720Z,81.94
2023-08-06T20:50:51.349Z,82.18
2023-08-06T20:53:19.760Z,82.44
2023-08-06T20:55:46.882Z,82.16
2023-08-06T20:58:13.880Z,82.73
2023-08-06T21:00:41.010Z,82.38
2023-08-06T21:03:07.959Z,82.21
2023-08-06T21:05:35.789Z,82.59
2023-08-06T21:08:02.735Z,82.58
2023-08-06T21:10:29.757Z,82.70
2023-08-06T21:12:56.688Z,82.30
2023-08-06T21:15:23.583Z,82.73
2023-08-06T21:17:50.470Z,82.97
2023-08-06T21:20:18.117Z,83.04
2023-08-06T21:22:45.310Z,83.16
2023-08-06T21:25:12.283Z,83.25
2023-08-06T21:27:40.368Z,83.78
2023-08-06T21:30:13.646Z,83.71
2023-08-06T21:32:40.723Z,84.11
2023-08-06T21:35:08.906Z,84.10
2023-08-06T21:37:38.175Z,83.84
2023-08-06T21:40:05.627Z,83.58
2023-08-06T21:42:32.557Z,83.57
2023-08-06T21:45:02.788Z,83.72
2023-08-06T21:47:30.247Z,83.28
2023-08-06T21:49:57.564Z,83.22
2023-08-06T21:52:24.504Z,83.10
2023-08-06T21:54:52.146Z,83.10
2023-08-06T21:57:19.392Z,83.09
2023-08-06T21:59:48.552Z,82.79
2023-08-06T22:02:15.497Z,82.77
2023-08-06T22:04:42.482Z,82.83
2023-08-06T22:07:10.941Z,82.69
2023-08-06T22:09:38.058Z,82.71
2023-08-06T22:12:05.401Z,82.91
2023-08-06T22:14:32.942Z,82.74
2023-08-06T22:17:01.176Z,82.86
2023-08-06T22:19:28.089Z,82.57
2023-08-06T22:21:55.745Z,82.58
2023-08-06T22:24:24.015Z,82.63
2023-08-06T22:26:52.035Z,82.87
2023-08-06T22:29:19.006Z,82.61
2023-08-06T22:31:45.981Z,82.55
2023-08-06T22:34:12.987Z,82.66
2023-08-06T22:36:41.305Z,82.80
2023-08-06T22:39:09.685Z,82.72
2023-08-06T22:41:38.704Z,82.69
2023-08-06T22:44:07.285Z,82.79
2023-08-06T22:46:35.230Z,82.83
2023-08-06T22:49:03.926Z,82.89
2023-08-06T22:51:30.993Z,82.85
2023-08-06T22:53:58.351Z,82.88
2023-08-06T22:56:25.547Z,82.40
2023-08-06T22:58:52.690Z,82.61
2023-08-06T23:01:19.636Z,82.63
2023-08-06T23:03:48.838Z,82.77
2023-08-06T23:06:16.331Z,82.64
2023-08-06T23:08:43.552Z,82.82
2023-08-06T23:11:10.497Z,82.44
2023-08-06T23:13:38.522Z,82.54
2023-08-06T23:16:05.796Z,82.42
2023-08-06T23:18:33.991Z,82.86
2023-08-06T23:21:01.101Z,82.66
2023-08-06T23:23:28.028Z,82.89
2023-08-06T23:25:55.141Z,83.01
2023-08-06T23:28:24.782Z,82.62
2023-08-06T23:30:53.354Z,83.04
2023-08-06T23:33:20.334Z,83.08
2023-08-06T23:35:47.239Z,82.73
2023-08-06T23:38:14.176Z,82.99
2023-08-06T23:40:41.429Z,82.93
2023-08-06T23:43:08.339Z,83.13
2023-08-06T23:45:35.342Z,83.04
2023-08-06T23:48:03.829Z,83.13
2023-08-06T23:50:31.294Z,82.77
2023-08-06T23:52:58.432Z,83.07
2023-08-06T23:55:25.413Z,82.94
2023-08-06T23:57:53.297Z,82.90
